4M9

Corning Municipal Airport

Corning, Arkansas, USA
METAR K4M9 171435Z AUTO 23006KT 10SM CLR 23/23 A3002 RMK AO2 LTG DSNT S AND W PWINO
Observed Flight Rules
Aug-17 @ 14:35 UTC (21 minutes ago) Visual Flight Rules
Wind Visibility Clouds
230° at 6 knots 10 miles
  • Clear skies
Temperatures Readings
Current 23°C / 73°F
Dewpoint 23°C / 73°F
Humidity 100%
Altimeter 30.02" Hg
Pressure 1017 hPa
Elevation 90
METAR K4M9 171435Z AUTO 23006KT 10SM CLR 23/23 A3002 RMK AO2 LTG DSNT S AND W PWINO
Observed Flight Rules
Aug-17 @ 14:35 UTC
(21 minutes ago)
VFR
Wind Visibility
230° at 6 knots 10 miles
Clouds
  • Clear skies
Temperature Dewpoint
23°C / 73°F 23°C / 73°F
Humidity Altimeter Pressure
100% 30.02" Hg 1017 hPa